Data for 07/08/2009

Time Sea-Level Adjusted Pressure Absolute Pressure Temperature Relative Humidity Dew Point   
(mb) (inHg) (mb) (inHg) (C) (F) (%) (C) (F)
00:05 1015 29.97 844 24.92 11.4 52.5 75 7.1 44.7
00:10 1015 29.97 844 24.92 11.5 52.8 74 7.1 44.8
00:15 1015 29.97 844 24.92 11.6 52.9 74 7.2 45
00:20 1015 29.97 844 24.92 11.8 53.2 73 7.2 44.9
00:25 1015 29.97 844 24.92 11.9 53.4 72 7.1 44.8
00:30 1015 29.97 845 24.95 11.9 53.3 72 7 44.6
00:35 1015 29.97 845 24.95 12 53.5 72 7.1 44.7
00:40 1015 29.97 845 24.95 11.9 53.5 72 7 44.7
00:45 1016 30 845 24.95 11.8 53.3 72 7 44.6
00:50 1016 30 845 24.95 11.9 53.3 72 6.9 44.5
00:55 1016 30 845 24.95 12 53.6 71 6.9 44.4
01:00 1016 30 845 24.95 12 53.6 71 6.9 44.5
01:05 1016 30 845 24.95 12.1 53.7 70 6.8 44.3
01:10 1016 30 845 24.95 12.1 53.8 70 6.8 44.3
01:15 1016 30 845 24.95 12.3 54.2 69 6.9 44.5
01:20 1016 30 845 24.95 12.4 54.4 68 6.8 44.2
01:25 1016 30 845 24.95 12.6 54.6 68 6.9 44.5
01:30 1016 30 845 24.95 12.6 54.7 68 7 44.5
01:35 1015 29.97 845 24.95 12.6 54.6 68 6.9 44.5
01:40 1015 29.97 845 24.95 12.5 54.5 69 7 44.6
01:45 1015 29.97 845 24.95 12.4 54.3 71 7.2 45
01:50 1015 29.97 844 24.92 12.2 53.9 71 7.1 44.8
01:55 1015 29.97 844 24.92 12.1 53.8 72 7.3 45.1
02:00 1015 29.97 844 24.92 12 53.6 73 7.3 45.2
02:05 1015 29.97 844 24.92 11.9 53.4 73 7.3 45.1
02:10 1015 29.97 844 24.92 11.8 53.3 74 7.3 45.2
02:15 1015 29.97 844 24.92 11.8 53.2 75 7.4 45.4
02:20 1015 29.97 844 24.92 11.6 52.9 75 7.3 45.2
02:25 1015 29.97 844 24.92 11.6 52.8 74 7.1 44.8
02:30 1015 29.97 844 24.92 11.6 52.8 74 7.2 44.9
02:35 1015 29.97 844 24.92 11.5 52.8 74 7.1 44.8
02:40 1015 29.97 844 24.92 11.5 52.8 74 7.1 44.8
02:45 1015 29.97 844 24.92 11.5 52.6 74 7.1 44.8
02:50 1015 29.97 844 24.92 11.4 52.5 75 7.1 44.8
02:55 1015 29.97 844 24.92 11.3 52.3 75 7.1 44.7
03:00 1015 29.97 844 24.92 11.2 52.2 75 7 44.5
03:05 1015 29.97 844 24.92 11.2 52.2 75 7 44.5
03:10 1015 29.97 844 24.92 11.3 52.3 74 6.9 44.4
03:15 1015 29.97 844 24.92 11.4 52.4 74 6.9 44.5
03:20 1015 29.97 844 24.92 11.4 52.6 73 6.9 44.3
03:25 1015 29.97 844 24.92 11.4 52.5 74 6.9 44.5
03:30 1015 29.97 844 24.92 11.1 52.1 74 6.7 44
03:35 1015 29.97 844 24.92 10.8 51.5 76 6.9 44.4
03:40 1015 29.97 844 24.92 10.6 51.1 76 6.6 43.9
03:45 1015 29.97 844 24.92 10.8 51.5 73 6.3 43.3
03:50 1015 29.97 844 24.92 10.8 51.5 75 6.5 43.8
03:55 1015 29.97 844 24.92 10.3 50.5 77 6.4 43.5
04:00 1015 29.97 844 24.92 10.1 50.2 75 5.9 42.6
04:05 1015 29.97 844 24.92 10.4 50.7 73 5.8 42.5
04:10 1015 29.97 844 24.92 10.3 50.6 73 5.8 42.5
04:15 1015 29.97 844 24.92 10.1 50.1 73 5.4 41.8
04:20 1015 29.97 844 24.92 10.2 50.4 73 5.6 42.1
04:25 1015 29.97 844 24.92 10.2 50.4 72 5.5 41.9
04:30 1015 29.97 844 24.92 10.3 50.5 71 5.3 41.5
04:35 1015 29.97 844 24.92 10.3 50.6 72 5.6 42.1
04:40 1015 29.97 844 24.92 10 50 74 5.6 42.1
04:45 1015 29.97 844 24.92 9.7 49.5 75 5.6 42
04:50 1015 29.97 844 24.92 9.6 49.3 76 5.6 42
04:55 1015 29.97 844 24.92 9.5 49.1 76 5.6 42
05:00 1015 29.97 844 24.92 9.5 49.2 77 5.7 42.3
05:05 1015 29.97 844 24.92 9.4 48.9 78 5.8 42.4
05:10 1015 29.97 844 24.92 9.3 48.7 79 5.8 42.4
05:15 1015 29.97 845 24.95 9.2 48.6 79 5.8 42.5
05:20 1015 29.97 845 24.95 9.1 48.3 80 5.9 42.6
05:25 1015 29.97 844 24.92 9 48.2 81 5.9 42.6
05:30 1015 29.97 844 24.92 9.1 48.4 80 5.8 42.5
05:35 1015 29.97 844 24.92 9.3 48.7 79 5.9 42.5
05:40 1015 29.97 844 24.92 9.6 49.2 78 6 42.8
05:45 1015 29.97 844 24.92 9.7 49.4 78 6 42.8
05:50 1015 29.97 844 24.92 9.7 49.5 77 6 42.7
05:55 1015 29.97 844 24.92 10 49.9 77 6.1 43
06:00 1015 29.97 844 24.92 10 49.9 77 6.2 43.1
06:05 1015 29.97 844 24.92 9.9 49.7 78 6.3 43.4
06:10 1015 29.97 844 24.92 9.8 49.6 80 6.5 43.7
06:15 1015 29.97 845 24.95 9.7 49.5 79 6.3 43.4
06:20 1015 29.97 845 24.95 10 50 78 6.3 43.3
06:25 1015 29.97 845 24.95 10.2 50.4 77 6.4 43.6
06:30 1016 30 845 24.95 10.4 50.6 77 6.6 43.8
06:35 1016 30 845 24.95 10.5 50.9 77 6.7 44
06:40 1016 30 845 24.95 10.7 51.2 76 6.6 43.9
06:45 1016 30 845 24.95 10.8 51.5 76 6.8 44.3
06:50 1016 30 845 24.95 10.9 51.7 77 7.1 44.8
06:55 1016 30 845 24.95 10.9 51.6 78 7.2 45
07:00 1016 30 845 24.95 10.9 51.6 79 7.4 45.3
07:05 1016 30 845 24.95 10.7 51.2 80 7.4 45.4
07:10 1016 30 845 24.95 10.6 51.1 81 7.4 45.4
07:15 1016 30 845 24.95 10.5 51 82 7.5 45.6
07:20 1016 30 845 24.95 10.2 50.4 84 7.6 45.7
07:25 1016 30 845 24.95 9.9 49.8 84 7.3 45.1
07:30 1016 30 845 24.95 10.1 50.3 83 7.4 45.4
07:35 1016 30 845 24.95 10.3 50.5 83 7.5 45.6
07:40 1016 30 845 24.95 10.3 50.5 84 7.6 45.7
07:45 1016 30 846 24.98 10.1 50.3 85 7.7 45.9
07:50 1017 30.03 846 24.98 10 50 85 7.7 45.8
07:55 1017 30.03 846 24.98 9.9 49.8 86 7.6 45.6
08:00 1017 30.03 846 24.98 10 50 84 7.4 45.4
08:05 1017 30.03 846 24.98 10 50 84 7.4 45.3
08:10 1017 30.03 846 24.98 9.9 49.7 86 7.6 45.6
08:15 1017 30.03 846 24.98 9.7 49.5 87 7.7 45.9
08:20 1017 30.03 846 24.98 9.7 49.5 88 7.9 46.2
08:25 1017 30.03 846 24.98 9.8 49.6 88 7.8 46.1
08:30 1017 30.03 846 24.98 9.8 49.7 87 7.7 45.9
08:35 1017 30.03 846 24.98 9.9 49.7 86 7.7 45.8
08:40 1017 30.03 846 24.98 9.9 49.8 88 8 46.3
08:45 1017 30.03 846 24.98 10 49.9 87 7.8 46.1
08:50 1017 30.03 846 24.98 10 50 86 7.8 46
08:55 1017 30.03 846 24.98 10 50.1 85 7.7 45.9
09:00 1017 30.03 846 24.98 10.3 50.5 85 7.8 46
09:05 1017 30.03 846 24.98 10.5 50.8 84 7.9 46.2
09:10 1017 30.03 846 24.98 10.7 51.2 81 7.6 45.8
09:15 1017 30.03 846 24.98 10.9 51.7 81 7.8 46
09:20 1017 30.03 846 24.98 11.3 52.4 80 8 46.5
09:25 1017 30.03 846 24.98 11.8 53.3 76 7.8 46
09:30 1017 30.03 846 24.98 11.7 53 76 7.6 45.7
09:35 1017 30.03 846 24.98 11.9 53.3 77 8.1 46.5
09:40 1017 30.03 846 24.98 11.9 53.4 74 7.4 45.3
09:45 1017 30.03 846 24.98 11.9 53.4 75 7.6 45.6
09:50 1017 30.03 846 24.98 12 53.6 71 6.9 44.5
09:55 1017 30.03 846 24.98 11.8 53.2 75 7.4 45.3
10:00 1017 30.03 846 24.98 11.4 52.4 76 7.3 45.2
10:05 1017 30.03 846 24.98 11 51.8 76 7 44.6
10:10 1017 30.03 846 24.98 11.1 52 74 6.8 44.2
10:15 1017 30.03 846 24.98 11.1 52 75 6.9 44.3
10:20 1017 30.03 846 24.98 11.3 52.4 75 7 44.7
10:25 1017 30.03 846 24.98 11.4 52.6 74 6.9 44.4
10:30 1017 30.03 846 24.98 11.6 52.9 72 6.8 44.2
10:35 1017 30.03 846 24.98 11.2 52.1 75 6.9 44.4
10:40 1017 30.03 846 24.98 11.1 52 73 6.6 43.8
10:45 1017 30.03 846 24.98 11.2 52.2 72 6.5 43.6
10:50 1017 30.03 846 24.98 11.6 52.8 70 6.4 43.5
10:55 1017 30.03 846 24.98 12 53.5 70 6.7 44
11:00 1017 30.03 846 24.98 11.9 53.3 70 6.7 44
11:05 1017 30.03 846 24.98 11.7 53 70 6.4 43.6
11:10 1017 30.03 846 24.98 11.8 53.3 68 6.2 43.1
11:15 1017 30.03 846 24.98 12.1 53.8 67 6.2 43.2
11:20 1016 30 846 24.98 12.8 55 63 6 42.8
11:25 1016 30 846 24.98 13.2 55.7 63 6.4 43.6
11:30 1016 30 846 24.98 13.1 55.5 63 6.2 43.2
11:35 1016 30 845 24.95 13.1 55.5 61 5.9 42.6
11:40 1016 30 845 24.95 12.4 54.3 62 5.3 41.5
11:45 1017 30.03 846 24.98 12.4 54.4 61 5.3 41.5
11:50 1017 30.03 847 25.01 12 53.7 67 6 42.9
11:55 1017 30.03 847 25.01 11.7 53.1 74 7.3 45.1
12:00 1017 30.03 846 24.98 11.5 52.8 80 8.1 46.6
12:05 1017 30.03 846 24.98 11.7 53 78 8 46.4
12:10 1017 30.03 846 24.98 12.2 54 67 6.3 43.4
12:15 1017 30.03 846 24.98 12.8 55 69 7.2 45
12:20 1017 30.03 846 24.98 12.8 55.1 64 6.2 43.2
12:25 1017 30.03 846 24.98 12.7 54.8 73 7.9 46.3
12:30 1016 30 846 24.98 12.4 54.3 70 7.1 44.8
12:35 1016 30 846 24.98 12.5 54.4 67 6.6 43.8
12:40 1016 30 845 24.95 12 53.5 70 6.8 44.2
12:45 1016 30 845 24.95 12.3 54.1 65 5.9 42.6
12:50 1016 30 845 24.95 12.4 54.4 62 5.5 41.9
12:55 1016 30 845 24.95 12.6 54.6 60 5 41
13:00 1015 29.97 845 24.95 13.4 56.1 57 5.2 41.4
13:05 1016 30 845 24.95 13.1 55.5 56 4.6 40.3
13:10 1015 29.97 845 24.95 12.9 55.1 57 4.7 40.4
13:15 1016 30 845 24.95 13.3 56 59 5.5 41.9
13:20 1016 30 845 24.95 13.3 55.9 60 5.8 42.4
13:25 1016 30 845 24.95 13.7 56.6 61 6.2 43.2
13:30 1016 30 845 24.95 13.9 57 60 6.4 43.5
13:35 1016 30 845 24.95 13.3 56 60 5.8 42.5
13:40 1016 30 845 24.95 13.7 56.7 61 6.5 43.7
13:45 1015 29.97 845 24.95 13.1 55.6 63 6.3 43.3
13:50 1015 29.97 845 24.95 13.1 55.6 62 6.1 42.9
13:55 1015 29.97 845 24.95 14.3 57.8 58 6.2 43.1
14:00 1016 30 845 24.95 14.7 58.5 53 5.4 41.7
14:05 1016 30 845 24.95 14.8 58.7 49 4.3 39.7
14:10 1016 30 845 24.95 14.4 58 51 4.4 40
14:15 1016 30 845 24.95 14.4 58 51 4.6 40.3
14:20 1016 30 845 24.95 14.9 58.7 51 4.8 40.6
14:25 1016 30 845 24.95 14.6 58.3 51 4.6 40.3
14:30 1016 30 845 24.95 15.5 60 46 4.1 39.3
14:35 1016 30 845 24.95 16.7 62.1 47 5.4 41.6
14:40 1016 30 845 24.95 16.2 61.1 52 6.4 43.5
14:45 1016 30 845 24.95 15.4 59.7 52 5.7 42.2
14:50 1016 30 846 24.98 15.1 59.2 64 8.5 47.3
14:55 1017 30.03 846 24.98 11.7 53 84 9 48.3
15:00 1017 30.03 846 24.98 9.8 49.7 89 8.1 46.6
15:05 1017 30.03 846 24.98 9.6 49.3 90 8.1 46.5
15:10 1017 30.03 846 24.98 9.6 49.4 91 8.3 47
15:15 1017 30.03 846 24.98 9.6 49.3 91 8.2 46.7
15:20 1017 30.03 846 24.98 9.2 48.6 91 7.9 46.3
15:25 1017 30.03 847 25.01 9.2 48.5 90 7.7 45.8
15:30 1018 30.06 847 25.01 9.5 49 91 8.1 46.5
15:35 1018 30.06 847 25.01 10.1 50.2 90 8.5 47.3
15:40 1018 30.06 847 25.01 10.5 50.8 87 8.4 47.1
15:45 1018 30.06 847 25.01 10.4 50.8 89 8.7 47.7
15:50 1018 30.06 847 25.01 10.1 50.1 88 8.2 46.8
15:55 1018 30.06 847 25.01 9.9 49.8 89 8.1 46.6
16:00 1018 30.06 847 25.01 9.9 49.8 89 8.2 46.8
16:05 1018 30.06 847 25.01 9.8 49.7 89 8 46.5
16:10 1018 30.06 847 25.01 10.2 50.4 82 7.3 45.2
16:15 1018 30.06 847 25.01 10.7 51.2 81 7.6 45.7
16:20 1018 30.06 847 25.01 11.4 52.6 77 7.6 45.7
16:25 1018 30.06 847 25.01 12 53.6 79 8.5 47.3
16:30 1018 30.06 847 25.01 12.2 53.9 79 8.7 47.7
16:35 1018 30.06 847 25.01 13 55.4 70 7.6 45.7
16:40 1018 30.06 847 25.01 12.7 54.8 76 8.7 47.6
16:45 1018 30.06 847 25.01 12.9 55.2 74 8.3 47
16:50 1018 30.06 847 25.01 13.2 55.7 72 8.2 46.8
16:55 1018 30.06 847 25.01 13 55.3 68 7.2 45
17:00 1018 30.06 847 25.01 13.1 55.6 67 7.2 45
17:05 1018 30.06 847 25.01 13.5 56.2 65 7.1 44.8
17:10 1018 30.06 847 25.01 13.8 56.8 63 7 44.6
17:15 1018 30.06 847 25.01 14 57.1 65 7.5 45.5
17:20 1018 30.06 847 25.01 13.2 55.7 66 7.1 44.8
17:25 1017 30.03 847 25.01 13.1 55.6 66 7 44.7
17:30 1017 30.03 847 25.01 13.2 55.8 66 7.1 44.8
17:35 1018 30.06 847 25.01 13.5 56.3 61 6.3 43.3
17:40 1018 30.06 847 25.01 14.1 57.5 63 7.2 44.9
17:45 1018 30.06 847 25.01 14.5 58.1 57 6.2 43.2
17:50 1018 30.06 847 25.01 15 58.9 58 6.8 44.3
17:55 1018 30.06 847 25.01 14.2 57.6 60 6.7 44
18:00 1018 30.06 847 25.01 13.7 56.7 64 7.2 44.9
18:05 1018 30.06 847 25.01 13.8 56.9 62 6.7 44.1
18:10 1018 30.06 847 25.01 14.1 57.4 63 7.2 45
18:15 1018 30.06 847 25.01 13.9 57 60 6.4 43.4
18:20 1018 30.06 847 25.01 13.5 56.3 66 7.3 45.2
18:25 1018 30.06 847 25.01 13.2 55.7 66 7.1 44.7
18:30 1018 30.06 847 25.01 13.5 56.2 67 7.4 45.3
18:35 1018 30.06 847 25.01 13.1 55.7 67 7.3 45.1
18:40 1018 30.06 848 25.04 12.2 53.9 69 6.7 44
18:45 1018 30.06 848 25.04 11.6 52.8 70 6.3 43.3
18:50 1018 30.06 848 25.04 12.1 53.7 67 6.3 43.3
18:55 1018 30.06 848 25.04 12.2 53.9 67 6.4 43.4
19:00 1018 30.06 848 25.04 12.1 53.8 66 5.9 42.7
19:05 1019 30.09 848 25.04 12.3 54.1 65 5.9 42.6
19:10 1019 30.09 848 25.04 12.5 54.6 64 6.1 42.9
19:15 1019 30.09 848 25.04 12.7 54.9 63 6 42.8
19:20 1019 30.09 848 25.04 12.8 55.1 64 6.3 43.3
19:25 1019 30.09 848 25.04 12.8 55 65 6.4 43.6
19:30 1019 30.09 848 25.04 12.7 54.8 63 5.9 42.6
19:35 1019 30.09 848 25.04 12.7 54.8 64 6.1 43
19:40 1019 30.09 848 25.04 12.5 54.5 62 5.5 41.9
19:45 1019 30.09 848 25.04 12.2 53.9 66 6.1 42.9
19:50 1019 30.09 848 25.04 12.3 54.1 63 5.6 42
19:55 1019 30.09 848 25.04 12.2 53.9 63 5.5 41.9
20:00 1019 30.09 848 25.04 12.1 53.8 63 5.3 41.5
20:05 1019 30.09 848 25.04 12.2 53.9 62 5.2 41.4
20:10 1019 30.09 848 25.04 12.3 54.2 62 5.4 41.7
20:15 1019 30.09 848 25.04 12.1 53.8 64 5.5 42
20:20 1019 30.09 848 25.04 12.1 53.9 63 5.3 41.6
20:25 1019 30.09 848 25.04 12.1 53.9 63 5.4 41.8
20:30 1019 30.09 848 25.04 12.1 53.8 63 5.3 41.6
20:35 1019 30.09 848 25.04 12.2 54 62 5.1 41.2
20:40 1019 30.09 848 25.04 12.2 54 63 5.5 41.8
20:45 1019 30.09 848 25.04 12.2 54 63 5.4 41.8
20:50 1019 30.09 848 25.04 12.1 53.8 63 5.3 41.6
20:55 1019 30.09 848 25.04 12 53.7 63 5.3 41.5
21:00 1019 30.09 848 25.04 12 53.6 62 5 41
21:05 1019 30.09 848 25.04 11.8 53.3 64 5.4 41.7
21:10 1019 30.09 848 25.04 11.6 52.9 67 5.7 42.3
21:15 1019 30.09 848 25.04 11.4 52.5 68 5.7 42.2
21:20 1019 30.09 848 25.04 11.3 52.4 69 5.8 42.5
21:25 1019 30.09 848 25.04 11.3 52.3 69 5.7 42.3
21:30 1019 30.09 848 25.04 11 51.8 70 5.7 42.3
21:35 1019 30.09 848 25.04 10.7 51.2 73 6 42.8
21:40 1019 30.09 848 25.04 10.3 50.5 76 6.2 43.2
21:45 1019 30.09 849 25.07 10 50.1 77 6.3 43.3
21:50 1019 30.09 849 25.07 9.8 49.7 79 6.3 43.3
21:55 1019 30.09 849 25.07 9.7 49.4 79 6.2 43.2
22:00 1019 30.09 849 25.07 9.5 49.2 80 6.2 43.2
22:05 1019 30.09 849 25.07 9.4 48.8 80 6.1 42.9
22:10 1019 30.09 849 25.07 9.1 48.5 80 5.9 42.7
22:15 1019 30.09 849 25.07 9.1 48.3 81 5.9 42.6
22:20 1019 30.09 849 25.07 8.9 48 81 5.8 42.4
22:25 1019 30.09 849 25.07 8.8 47.8 81 5.7 42.2
22:30 1019 30.09 849 25.07 8.7 47.6 81 5.5 42
22:35 1019 30.09 849 25.07 8.5 47.4 81 5.5 41.9
22:40 1019 30.09 849 25.07 8.4 47.1 81 5.4 41.7
22:45 1019 30.09 849 25.07 8.4 47 81 5.3 41.6
22:50 1019 30.09 849 25.07 8.3 47 81 5.3 41.6
22:55 1019 30.09 849 25.07 8.2 46.7 82 5.3 41.5
23:00 1019 30.09 849 25.07 8 46.4 82 5.2 41.3
23:05 1020 30.12 849 25.07 7.9 46.2 83 5.1 41.2
23:10 1020 30.12 849 25.07 7.8 46 83 5 41
23:15 1020 30.12 849 25.07 7.7 45.9 83 5 41
23:20 1020 30.12 849 25.07 7.6 45.8 83 4.9 40.9
23:25 1020 30.12 849 25.07 7.6 45.7 83 4.9 40.8
23:30 1020 30.12 849 25.07 7.7 45.8 83 4.9 40.8
23:35 1020 30.12 849 25.07 7.6 45.7 83 4.9 40.8
23:40 1020 30.12 849 25.07 7.6 45.7 82 4.8 40.6
23:45 1020 30.12 849 25.07 7.4 45.4 83 4.8 40.6
23:50 1020 30.12 849 25.07 7.2 44.9 84 4.6 40.3
23:55 1020 30.12 849 25.07 7.1 44.8 83 4.4 39.9
24:00 1020 30.12 849 25.07 7.4 45.4 81 4.4 39.9